Time;durP1;ratioP1;P1;durP2;ratioP2;P2;SDS_P1;SDS_P2;PMS_P1;PMS_P2;Temp;Humidity;BMP_temperature;BMP_pressure;BME280_temperature;BME280_humidity;BME280_pressure;Samples;Min_cycle;Max_cycle;Signal;HPM_P1;HPM_P2
2021/11/08 00:01:47;;;;;;;22.50;6.67;;;9.80;93.30;;;;;;5081594;28;20179;-82
2021/11/08 00:04:12;;;;;;;19.00;6.60;;;9.70;93.20;;;;;;5078235;28;20161;-80
2021/11/08 00:06:39;;;;;;;23.83;7.20;;;9.70;93.40;;;;;;5076087;28;20176;-82
2021/11/08 00:09:07;;;;;;;19.60;6.33;;;9.60;93.70;;;;;;5075710;28;20218;-83
2021/11/08 00:11:33;;;;;;;21.70;6.90;;;9.70;93.60;;;;;;5075730;28;20164;-79
2021/11/08 00:13:59;;;;;;;22.70;6.80;;;9.80;93.30;;;;;;5075587;28;20659;-79
2021/11/08 00:16:39;;;;;;;16.90;6.77;;;9.90;92.60;;;;;;5075694;28;20181;-82
2021/11/08 00:21:48;;;;;;;18.73;6.43;;;10.00;91.60;;;;;;5081232;28;20172;-79
2021/11/08 00:24:17;;;;;;;20.77;6.87;;;10.00;90.40;;;;;;5082259;28;20172;-83
2021/11/08 00:26:43;;;;;;;17.73;6.20;;;10.10;90.10;;;;;;5085384;28;20174;-82
2021/11/08 00:29:08;;;;;;;19.17;5.80;;;9.90;88.90;;;;;;5080494;28;20744;-81
2021/11/08 00:31:34;;;;;;;24.80;7.10;;;9.70;90.50;;;;;;5075937;28;20533;-83
2021/11/08 00:34:02;;;;;;;20.60;6.90;;;9.70;91.50;;;;;;5075374;28;20176;-81
2021/11/08 00:36:28;;;;;;;23.10;6.87;;;9.60;91.10;;;;;;5067741;28;20620;-82
2021/11/08 00:38:54;;;;;;;21.60;7.80;;;9.50;92.20;;;;;;5086380;28;20172;-80
2021/11/08 00:41:20;;;;;;;16.67;6.63;;;9.50;92.80;;;;;;5087979;28;20226;-82
2021/11/08 00:43:46;;;;;;;20.47;6.10;;;9.40;93.50;;;;;;5081647;28;20563;-80
2021/11/08 00:46:12;;;;;;;18.40;6.30;;;9.30;94.20;;;;;;5079338;28;20195;-80
2021/11/08 00:48:38;;;;;;;15.67;5.97;;;9.10;95.10;;;;;;5075577;28;20203;-78
2021/11/08 00:51:06;;;;;;;19.47;6.67;;;9.10;96.00;;;;;;5091941;28;20184;-80
2021/11/08 00:53:32;;;;;;;19.00;7.00;;;9.00;96.40;;;;;;5075587;28;20168;-83
2021/11/08 00:56:02;;;;;;;16.17;6.73;;;9.00;96.80;;;;;;5083268;28;20176;-83
2021/11/08 00:58:33;;;;;;;16.27;6.43;;;9.00;97.10;;;;;;5057671;28;20250;-82
2021/11/08 01:01:04;;;;;;;16.37;6.30;;;9.00;97.10;;;;;;5074705;28;20642;-82
2021/11/08 01:03:40;;;;;;;23.83;6.80;;;8.90;97.30;;;;;;5074912;28;20172;-81
2021/11/08 01:06:06;;;;;;;23.77;6.77;;;9.00;97.50;;;;;;5056687;28;20251;-81
2021/11/08 01:08:32;;;;;;;24.03;6.97;;;8.90;97.70;;;;;;5074284;28;20238;-79
2021/11/08 01:10:58;;;;;;;20.73;7.27;;;9.00;97.70;;;;;;5074447;28;20164;-82
2021/11/08 01:13:24;;;;;;;19.20;6.50;;;9.10;97.40;;;;;;5073750;28;20168;-82
2021/11/08 01:15:51;;;;;;;22.93;7.00;;;9.30;97.30;;;;;;5056281;28;20168;-82
2021/11/08 01:18:18;;;;;;;16.30;6.57;;;9.30;96.40;;;;;;5074426;28;20160;-81
2021/11/08 01:20:46;;;;;;;19.43;7.33;;;9.50;95.90;;;;;;5074366;28;20174;-82
2021/11/08 01:23:15;;;;;;;22.70;6.90;;;9.70;94.70;;;;;;5074124;28;20165;-83
2021/11/08 01:25:41;;;;;;;21.13;6.60;;;9.70;93.30;;;;;;5056701;28;20536;-83
2021/11/08 01:28:09;;;;;;;20.20;7.07;;;9.80;91.40;;;;;;5056046;28;20566;-83
2021/11/08 01:30:35;;;;;;;18.13;6.53;;;9.80;90.60;;;;;;5074195;28;20195;-81
2021/11/08 01:33:07;;;;;;;19.37;6.73;;;9.90;90.00;;;;;;5074306;28;20157;-82
2021/11/08 01:36:22;;;;;;;19.10;5.43;;;9.80;88.60;;;;;;5074289;28;20171;-83
2021/11/08 01:38:26;;;;;;;20.60;6.33;;;9.70;87.90;;;;;;5068060;28;20574;-79
2021/11/08 01:40:52;;;;;;;22.63;6.53;;;9.60;88.60;;;;;;5074160;28;20179;-81
2021/11/08 01:43:20;;;;;;;18.83;6.37;;;9.50;90.00;;;;;;5056085;28;20644;-80
2021/11/08 01:45:46;;;;;;;20.33;6.97;;;9.40;90.50;;;;;;5073819;28;20169;-81
2021/11/08 01:48:12;;;;;;;21.43;7.13;;;9.40;90.90;;;;;;5057373;28;20208;-81
2021/11/08 01:50:38;;;;;;;18.40;6.90;;;9.40;91.00;;;;;;5076073;28;20180;-79
2021/11/08 01:53:04;;;;;;;17.60;6.57;;;9.30;91.10;;;;;;5075180;28;20226;-81
2021/11/08 01:55:31;;;;;;;16.27;6.17;;;9.20;92.20;;;;;;5074681;28;20176;-81
2021/11/08 01:57:58;;;;;;;22.43;6.73;;;9.20;92.90;;;;;;5075972;28;20168;-79
2021/11/08 02:00:25;;;;;;;20.63;5.93;;;9.10;93.40;;;;;;5056840;28;20210;-82
2021/11/08 02:02:50;;;;;;;22.50;6.03;;;9.00;94.00;;;;;;5073381;28;20172;-79
2021/11/08 02:05:16;;;;;;;18.77;5.77;;;8.90;94.30;;;;;;5073328;28;20692;-82
2021/11/08 02:07:43;;;;;;;16.50;5.50;;;8.80;95.30;;;;;;5073333;28;20168;-82
2021/11/08 02:10:11;;;;;;;18.67;6.10;;;8.70;95.90;;;;;;5073808;28;20712;-79
2021/11/08 02:12:37;;;;;;;16.57;6.20;;;8.70;96.70;;;;;;5073539;28;20247;-82
2021/11/08 02:15:05;;;;;;;22.17;6.63;;;8.70;97.00;;;;;;5055797;28;20177;-81
2021/11/08 02:17:32;;;;;;;18.83;6.03;;;8.80;96.80;;;;;;5073674;28;20228;-82
2021/11/08 02:20:23;;;;;;;19.77;6.27;;;8.50;96.10;;;;;;5055410;28;20168;-82
2021/11/08 02:22:50;;;;;;;19.47;6.40;;;8.70;96.60;;;;;;5055403;28;20262;-81
2021/11/08 02:25:21;;;;;;;17.23;5.67;;;8.70;96.60;;;;;;5073552;28;20161;-81
2021/11/08 02:27:48;;;;;;;25.63;5.70;;;8.70;96.40;;;;;;5074662;28;20516;-81
2021/11/08 02:30:16;;;;;;;19.17;5.53;;;8.70;96.60;;;;;;5074856;28;20203;-81
2021/11/08 02:32:43;;;;;;;18.10;5.83;;;8.60;96.90;;;;;;5075353;28;20187;-82
2021/11/08 02:35:13;;;;;;;17.17;6.17;;;8.50;97.30;;;;;;5057091;28;20172;-80
2021/11/08 02:37:40;;;;;;;18.07;6.20;;;8.50;97.40;;;;;;5075023;28;20172;-81
2021/11/08 02:40:08;;;;;;;19.63;6.00;;;8.50;97.50;;;;;;5074994;28;20180;-79
2021/11/08 02:42:35;;;;;;;17.37;5.70;;;8.60;97.70;;;;;;5074423;28;20169;-83
2021/11/08 02:45:04;;;;;;;17.73;6.17;;;8.50;97.50;;;;;;5076018;28;20172;-82
2021/11/08 02:47:29;;;;;;;22.27;7.30;;;8.40;97.70;;;;;;5077761;28;20259;-82
2021/11/08 02:49:57;;;;;;;16.37;5.33;;;8.60;98.10;;;;;;5058203;28;20243;-81
2021/11/08 02:52:25;;;;;;;19.10;6.07;;;8.50;97.80;;;;;;5074889;28;20184;-82
2021/11/08 02:54:52;;;;;;;17.77;5.97;;;8.40;98.00;;;;;;5089328;28;20179;-79
2021/11/08 02:57:22;;;;;;;17.07;5.37;;;8.40;98.10;;;;;;5089025;28;20169;-82
2021/11/08 02:59:48;;;;;;;18.93;5.50;;;8.30;98.40;;;;;;5074398;28;20179;-80
2021/11/08 03:02:17;;;;;;;15.87;5.80;;;8.20;98.90;;;;;;5057226;28;20176;-79
2021/11/08 03:04:45;;;;;;;18.77;6.17;;;8.20;99.30;;;;;;5057650;28;20168;-82
2021/11/08 03:07:11;;;;;;;18.10;6.00;;;8.20;99.60;;;;;;5075302;28;20195;-81
2021/11/08 03:09:50;;;;;;;20.80;6.07;;;8.40;99.60;;;;;;5074667;28;20207;-81
2021/11/08 03:12:21;;;;;;;19.10;5.57;;;8.30;99.50;;;;;;5073792;28;20168;-82
2021/11/08 03:15:09;;;;;;;19.77;5.87;;;8.50;99.20;;;;;;5055520;28;20172;-82
2021/11/08 03:17:42;;;;;;;19.37;6.30;;;8.40;98.90;;;;;;5055476;28;20271;-82
2021/11/08 03:20:16;;;;;;;19.60;7.13;;;8.40;98.80;;;;;;5073445;28;20168;-80
2021/11/08 03:22:55;;;;;;;19.83;5.67;;;8.40;98.60;;;;;;5057011;28;20203;-81
2021/11/08 03:28:04;;;;;;;18.17;5.97;;;8.40;98.20;;;;;;5074635;28;20204;-79
2021/11/08 03:30:36;;;;;;;20.17;5.30;;;8.40;98.30;;;;;;5076846;28;20184;-81
2021/11/08 03:33:05;;;;;;;18.00;5.70;;;8.40;98.10;;;;;;5076711;28;20180;-83
2021/11/08 03:35:32;;;;;;;18.13;5.80;;;8.40;97.90;;;;;;5076545;28;20160;-83
2021/11/08 03:37:59;;;;;;;19.67;6.20;;;8.30;97.90;;;;;;5059321;28;20168;-82
2021/11/08 03:40:40;;;;;;;18.90;6.03;;;8.20;98.20;;;;;;5077430;28;20251;-83
2021/11/08 03:43:10;;;;;;;15.67;5.27;;;8.30;98.60;;;;;;5083960;28;20167;-82
2021/11/08 03:45:36;;;;;;;16.83;5.67;;;8.30;98.90;;;;;;5086504;28;20536;-82
2021/11/08 03:48:05;;;;;;;22.00;6.90;;;8.30;99.10;;;;;;5088532;28;20200;-81
2021/11/08 03:50:30;;;;;;;18.73;5.77;;;8.40;98.60;;;;;;5089899;28;20179;-79
2021/11/08 03:52:57;;;;;;;16.20;5.23;;;8.40;98.60;;;;;;5092974;28;20220;-79
2021/11/08 03:55:24;;;;;;;16.57;5.23;;;8.40;98.00;;;;;;5085244;28;20573;-81
2021/11/08 03:57:51;;;;;;;19.57;5.63;;;8.30;98.10;;;;;;5084534;28;20171;-79
2021/11/08 04:00:25;;;;;;;14.10;5.07;;;8.30;98.30;;;;;;5082405;28;20229;-82
2021/11/08 04:02:51;;;;;;;18.23;5.30;;;8.20;98.50;;;;;;5058194;28;20202;-79
2021/11/08 04:05:19;;;;;;;24.87;6.90;;;8.20;98.90;;;;;;5075986;28;20164;-82
2021/11/08 04:07:47;;;;;;;22.70;6.00;;;8.20;99.10;;;;;;5057759;28;20177;-83
2021/11/08 04:10:14;;;;;;;19.97;5.20;;;8.10;99.00;;;;;;5075876;28;20226;-81
2021/11/08 04:12:40;;;;;;;21.67;6.30;;;8.10;98.80;;;;;;5058358;28;20251;-83
2021/11/08 04:15:10;;;;;;;22.33;5.97;;;8.10;98.90;;;;;;5077052;28;20256;-79
2021/11/08 04:17:42;;;;;;;17.87;5.13;;;8.00;99.30;;;;;;5061976;28;20184;-78
2021/11/08 04:20:09;;;;;;;15.33;5.50;;;8.00;99.60;;;;;;5080448;28;20169;-80
2021/11/08 04:22:36;;;;;;;18.33;6.37;;;7.90;99.90;;;;;;5081027;28;20695;-82
2021/11/08 04:25:03;;;;;;;16.93;6.10;;;8.00;99.90;;;;;;5086089;28;20192;-81
2021/11/08 04:27:33;;;;;;;18.33;6.07;;;7.90;99.90;;;;;;5091418;28;20169;-81
2021/11/08 04:30:00;;;;;;;18.00;5.70;;;8.00;99.90;;;;;;5075973;28;20212;-80
2021/11/08 04:32:30;;;;;;;19.70;6.07;;;8.00;99.90;;;;;;5076054;28;20161;-81
2021/11/08 04:35:05;;;;;;;22.57;5.73;;;8.00;99.90;;;;;;5076585;28;20199;-82
2021/11/08 04:37:52;;;;;;;15.67;5.93;;;8.00;99.90;;;;;;5076335;28;20167;-83
2021/11/08 04:40:25;;;;;;;24.30;5.67;;;8.10;99.90;;;;;;5058180;28;20188;-81
2021/11/08 04:43:11;;;;;;;19.03;6.43;;;8.20;99.90;;;;;;5078987;28;20198;-82
2021/11/08 04:51:20;;;;;;;16.83;4.93;;;8.10;99.20;;;;;;5087201;28;20338;-80
2021/11/08 05:31:38;;;;;;;20.70;5.80;;;7.80;99.90;;;;;;5074474;28;20179;-82
2021/11/08 05:34:04;;;;;;;18.90;6.00;;;7.80;99.90;;;;;;5075682;28;20172;-82
2021/11/08 05:36:30;;;;;;;16.80;6.23;;;7.80;99.90;;;;;;5083055;28;20165;-81
2021/11/08 05:38:56;;;;;;;19.80;6.50;;;7.80;99.90;;;;;;5080744;28;20175;-81
2021/11/08 05:41:22;;;;;;;15.17;5.60;;;7.70;99.90;;;;;;5074307;28;20152;-79
2021/11/08 05:43:51;;;;;;;21.03;6.07;;;7.70;99.90;;;;;;5055790;28;20175;-81
2021/11/08 05:46:19;;;;;;;24.07;7.70;;;7.70;99.90;;;;;;5074131;28;20265;-81
2021/11/08 05:48:46;;;;;;;16.30;5.60;;;7.60;99.90;;;;;;5073917;28;20301;-81
2021/11/08 05:51:12;;;;;;;15.63;6.03;;;7.60;99.90;;;;;;5074354;28;20188;-81
2021/11/08 05:53:38;;;;;;;20.23;6.50;;;7.60;99.90;;;;;;5074497;28;20188;-82
2021/11/08 05:56:15;;;;;;;18.50;5.47;;;7.60;99.90;;;;;;5055892;28;20568;-82
2021/11/08 05:59:00;;;;;;;21.17;6.53;;;7.50;99.90;;;;;;5072924;28;20222;-82
2021/11/08 06:50:48;;;;;;;26.57;8.43;;;7.80;99.90;;;;;;5055622;28;20683;-82
2021/11/08 06:53:18;;;;;;;25.47;8.23;;;7.70;99.90;;;;;;5037295;28;20250;-83
2021/11/08 06:55:48;;;;;;;32.47;15.50;;;7.70;99.90;;;;;;5067845;28;20202;-82
2021/11/08 06:58:18;;;;;;;35.00;12.13;;;7.80;99.90;;;;;;5066715;28;20172;-82
2021/11/08 07:00:45;;;;;;;27.50;7.50;;;7.90;99.90;;;;;;5082165;28;20188;-83
2021/11/08 07:03:12;;;;;;;20.17;7.27;;;8.10;99.90;;;;;;5083261;28;20263;-81
2021/11/08 07:05:38;;;;;;;20.53;7.60;;;8.00;99.90;;;;;;5089686;28;20225;-82
2021/11/08 07:08:05;;;;;;;26.60;8.10;;;8.00;99.90;;;;;;5062970;28;20212;-82
2021/11/08 07:10:32;;;;;;;24.73;7.60;;;8.10;99.90;;;;;;5058014;28;20623;-83
2021/11/08 07:12:58;;;;;;;28.70;8.87;;;8.30;99.90;;;;;;5057856;28;20708;-81
2021/11/08 07:15:23;;;;;;;25.20;7.47;;;8.40;99.90;;;;;;5072596;28;20230;-84
2021/11/08 07:17:50;;;;;;;23.33;7.60;;;8.60;99.40;;;;;;5072887;28;20175;-84
2021/11/08 07:20:17;;;;;;;21.17;7.60;;;8.60;98.40;;;;;;5061385;28;20183;-84
2021/11/08 07:22:43;;;;;;;35.70;14.00;;;8.90;98.20;;;;;;5066648;28;20183;-84
2021/11/08 07:25:10;;;;;;;17.70;7.33;;;8.70;97.80;;;;;;5057796;28;20172;-84
2021/11/08 07:27:36;;;;;;;21.10;7.60;;;8.80;97.20;;;;;;5077183;28;20168;-83
2021/11/08 07:30:03;;;;;;;24.70;8.50;;;8.90;95.10;;;;;;5076547;28;20269;-84
2021/11/08 07:32:28;;;;;;;21.63;7.33;;;8.90;92.80;;;;;;5082037;28;20172;-81
2021/11/08 07:34:55;;;;;;;23.77;8.03;;;8.70;92.70;;;;;;5076877;28;20250;-83
2021/11/08 07:37:22;;;;;;;25.27;8.17;;;8.50;94.60;;;;;;5076313;28;20705;-81
2021/11/08 07:39:48;;;;;;;26.77;8.33;;;8.50;96.10;;;;;;5075908;28;20162;-82
2021/11/08 07:42:15;;;;;;;21.53;6.80;;;8.60;96.70;;;;;;5061597;28;20177;-82
2021/11/08 07:44:40;;;;;;;28.63;8.50;;;8.70;96.20;;;;;;5075823;28;20259;-80
2021/11/08 07:47:06;;;;;;;24.03;7.63;;;8.60;96.30;;;;;;5076216;28;20612;-81
2021/11/08 07:49:32;;;;;;;27.97;7.67;;;8.70;95.70;;;;;;5080219;28;20275;-82
2021/11/08 07:51:58;;;;;;;23.77;8.53;;;8.80;94.60;;;;;;5076535;28;20251;-80
2021/11/08 07:54:24;;;;;;;23.50;7.40;;;8.70;94.90;;;;;;5076315;28;20234;-81
2021/11/08 07:56:50;;;;;;;24.07;8.37;;;8.70;95.70;;;;;;5076282;28;20165;-82
2021/11/08 07:59:17;;;;;;;24.27;8.47;;;8.80;95.70;;;;;;5076294;28;20181;-82
2021/11/08 08:01:44;;;;;;;24.93;8.37;;;8.90;95.70;;;;;;5076543;28;20248;-82
2021/11/08 08:04:11;;;;;;;21.70;8.47;;;9.00;95.00;;;;;;5081813;28;20165;-80
2021/11/08 08:06:36;;;;;;;25.67;8.33;;;9.00;94.50;;;;;;5087950;28;20175;-82
2021/11/08 08:09:04;;;;;;;22.63;9.03;;;9.00;93.90;;;;;;5085724;28;20196;-80
2021/11/08 08:11:29;;;;;;;25.13;8.27;;;8.90;93.50;;;;;;5089048;28;20164;-80
2021/11/08 08:13:55;;;;;;;24.33;8.27;;;9.00;93.70;;;;;;5087313;28;20233;-80
2021/11/08 08:16:21;;;;;;;23.17;8.37;;;8.90;94.20;;;;;;5062147;28;20164;-79
2021/11/08 08:18:49;;;;;;;26.80;8.47;;;8.90;94.00;;;;;;5083385;28;20161;-81
2021/11/08 08:21:20;;;;;;;26.67;8.93;;;8.90;94.70;;;;;;5077179;28;20278;-79
2021/11/08 08:23:56;;;;;;;33.40;8.93;;;9.00;94.60;;;;;;5060957;28;20271;-84
2021/11/08 08:26:42;;;;;;;22.13;7.97;;;9.00;94.20;;;;;;5058158;28;20172;-83
2021/11/08 08:29:11;;;;;;;22.23;8.30;;;8.90;94.30;;;;;;5079894;28;20219;-83
2021/11/08 08:31:42;;;;;;;22.67;8.90;;;9.20;94.10;;;;;;5080872;28;20187;-82
2021/11/08 08:34:10;;;;;;;21.57;8.20;;;9.10;93.80;;;;;;5076142;28;20179;-82
2021/11/08 08:36:38;;;;;;;25.00;8.53;;;9.00;94.10;;;;;;5057620;28;20172;-83
2021/11/08 08:39:05;;;;;;;22.83;8.23;;;9.00;94.50;;;;;;5064469;28;20165;-84
2021/11/08 08:41:32;;;;;;;19.13;7.70;;;9.00;94.30;;;;;;5038457;28;20179;-83
2021/11/08 08:43:58;;;;;;;16.87;6.87;;;8.90;94.40;;;;;;5038632;28;20255;-82
2021/11/08 08:46:24;;;;;;;21.33;8.23;;;9.00;94.40;;;;;;5038120;28;20218;-84
2021/11/08 08:48:53;;;;;;;18.53;7.70;;;8.90;94.80;;;;;;5055035;28;20576;-82
2021/11/08 08:51:19;;;;;;;22.43;7.87;;;9.10;94.90;;;;;;5038402;28;20683;-81
2021/11/08 08:53:45;;;;;;;20.70;8.63;;;9.20;94.10;;;;;;5056310;28;20176;-83
2021/11/08 08:56:12;;;;;;;25.13;8.63;;;9.10;93.20;;;;;;5067068;28;20271;-81
2021/11/08 08:58:38;;;;;;;20.20;8.33;;;9.20;93.00;;;;;;5075708;28;20182;-82
2021/11/08 09:01:05;;;;;;;19.93;8.00;;;9.10;93.20;;;;;;5057400;28;20295;-78
2021/11/08 09:03:30;;;;;;;26.23;8.30;;;9.00;93.90;;;;;;5072451;28;20644;-80
2021/11/08 09:05:56;;;;;;;20.60;8.57;;;9.10;93.30;;;;;;5045958;28;20203;-80
2021/11/08 09:08:22;;;;;;;19.27;8.37;;;9.10;93.60;;;;;;5053969;28;20205;-79
2021/11/08 09:10:48;;;;;;;20.97;7.60;;;9.00;93.50;;;;;;5053914;28;20167;-77
2021/11/08 09:13:15;;;;;;;20.77;7.50;;;9.10;94.60;;;;;;5053939;28;20177;-78
2021/11/08 09:15:41;;;;;;;22.97;8.57;;;9.20;94.60;;;;;;5035797;28;20176;-79
2021/11/08 09:18:08;;;;;;;20.33;8.53;;;9.30;93.50;;;;;;5054033;28;20169;-82
2021/11/08 09:20:36;;;;;;;23.87;8.73;;;9.40;92.10;;;;;;5053685;28;20172;-82
2021/11/08 09:23:04;;;;;;;24.57;8.47;;;9.30;91.80;;;;;;5072175;28;20173;-80
2021/11/08 09:25:30;;;;;;;24.60;8.50;;;9.50;91.10;;;;;;5056743;28;20196;-77
2021/11/08 09:27:58;;;;;;;22.70;8.73;;;9.70;89.30;;;;;;5055824;28;20175;-80
2021/11/08 09:30:27;;;;;;;27.17;8.97;;;9.70;88.30;;;;;;5061887;28;20208;-80
2021/11/08 09:32:53;;;;;;;20.33;8.20;;;9.70;88.20;;;;;;5035586;28;20169;-81
2021/11/08 09:35:19;;;;;;;20.73;8.03;;;9.80;89.30;;;;;;5053814;28;20538;-81
2021/11/08 09:37:47;;;;;;;23.47;7.97;;;9.80;88.10;;;;;;5065260;28;20180;-79
2021/11/08 09:40:17;;;;;;;21.63;9.17;;;9.80;89.00;;;;;;5053447;28;20226;-81
2021/11/08 09:42:45;;;;;;;25.73;8.60;;;9.80;90.10;;;;;;5035780;28;20188;-77
2021/11/08 09:45:14;;;;;;;18.80;8.10;;;9.90;87.30;;;;;;5053888;28;20260;-79
2021/11/08 09:47:40;;;;;;;25.67;8.87;;;9.90;87.00;;;;;;5053492;28;20173;-80
2021/11/08 09:50:11;;;;;;;20.83;8.43;;;10.00;86.50;;;;;;5035990;28;20220;-80
2021/11/08 09:52:42;;;;;;;21.47;8.60;;;10.00;86.90;;;;;;5053918;28;20327;-80
2021/11/08 09:55:11;;;;;;;25.97;9.07;;;10.10;87.30;;;;;;5035990;28;20235;-80
2021/11/08 09:57:39;;;;;;;25.50;8.77;;;10.20;86.00;;;;;;5035271;28;20640;-81
2021/11/08 10:00:24;;;;;;;21.27;7.67;;;10.30;83.50;;;;;;5053496;28;20181;-80
2021/11/08 10:02:54;;;;;;;28.80;8.13;;;10.40;80.80;;;;;;5035504;28;20172;-80
2021/11/08 10:05:23;;;;;;;21.67;8.17;;;10.40;77.30;;;;;;5053142;28;20165;-79
2021/11/08 10:07:50;;;;;;;18.67;8.00;;;10.50;79.10;;;;;;5053165;28;20251;-81
2021/11/08 10:10:16;;;;;;;20.27;7.43;;;10.60;78.20;;;;;;5053121;28;20216;-82
2021/11/08 10:12:42;;;;;;;22.23;7.50;;;10.60;74.50;;;;;;5036888;28;20197;-82
2021/11/08 10:15:08;;;;;;;22.80;8.53;;;10.50;75.00;;;;;;5036682;28;20173;-81
2021/11/08 10:17:36;;;;;;;20.67;8.43;;;10.70;74.50;;;;;;5036367;28;20232;-83
2021/11/08 10:20:02;;;;;;;21.77;7.93;;;10.90;72.50;;;;;;5036849;28;20658;-80
2021/11/08 10:22:30;;;;;;;20.97;8.47;;;11.10;68.10;;;;;;5047324;28;20661;-79
2021/11/08 10:24:57;;;;;;;24.50;8.67;;;11.10;66.00;;;;;;5056737;28;20180;-83
2021/11/08 10:27:23;;;;;;;18.67;7.07;;;11.10;66.70;;;;;;5074575;28;20212;-82
2021/11/08 10:29:49;;;;;;;20.57;8.47;;;11.10;67.30;;;;;;5049253;28;20220;-83
2021/11/08 10:32:15;;;;;;;18.17;7.90;;;11.20;62.80;;;;;;5054655;28;20169;-83
2021/11/08 10:34:47;;;;;;;21.80;8.30;;;11.10;63.90;;;;;;5038048;28;20169;-83
2021/11/08 10:37:22;;;;;;;20.07;8.00;;;11.30;64.40;;;;;;5036554;28;20584;-84
2021/11/08 10:39:48;;;;;;;20.33;7.87;;;11.50;58.00;;;;;;5036702;28;20179;-85
2021/11/08 10:42:21;;;;;;;29.33;9.23;;;11.60;58.20;;;;;;5038828;28;20166;-82
2021/11/08 10:44:47;;;;;;;21.83;8.37;;;11.60;58.10;;;;;;5044373;28;20176;-82
2021/11/08 10:47:13;;;;;;;23.40;7.87;;;11.80;55.50;;;;;;5054221;28;20218;-82
2021/11/08 10:49:43;;;;;;;17.80;7.87;;;11.90;52.60;;;;;;5050344;28;20247;-81
2021/11/08 10:52:15;;;;;;;24.27;8.60;;;12.00;50.40;;;;;;5046878;28;20533;-82
2021/11/08 10:54:54;;;;;;;20.30;8.47;;;12.00;46.90;;;;;;5048565;28;20217;-81
2021/11/08 10:57:24;;;;;;;17.37;7.57;;;12.10;45.70;;;;;;5062809;28;20165;-82
2021/11/08 10:59:52;;;;;;;19.27;8.10;;;12.20;41.30;;;;;;5051270;28;20185;-82
2021/11/08 11:02:22;;;;;;;20.80;7.80;;;12.20;38.10;;;;;;5046947;28;20192;-82
2021/11/08 11:04:58;;;;;;;20.07;8.03;;;12.20;38.30;;;;;;5063157;28;20219;-82
2021/11/08 11:07:37;;;;;;;23.53;8.53;;;12.30;38.00;;;;;;5057796;28;20256;-83
2021/11/08 11:10:18;;;;;;;20.20;8.33;;;12.30;35.20;;;;;;5039837;28;20262;-82
2021/11/08 11:12:48;;;;;;;23.57;8.50;;;12.30;38.50;;;;;;5039102;28;20172;-83
2021/11/08 11:15:23;;;;;;;22.50;8.20;;;12.40;36.50;;;;;;5039948;28;20176;-83
2021/11/08 11:17:58;;;;;;;20.23;7.77;;;12.50;30.30;;;;;;5037468;28;20708;-82
2021/11/08 11:20:30;;;;;;;21.73;7.10;;;12.40;32.70;;;;;;5056760;28;20195;-82
2021/11/08 11:23:09;;;;;;;22.53;7.40;;;12.50;21.50;;;;;;5073747;28;20179;-84
2021/11/08 11:25:38;;;;;;;21.33;7.40;;;12.50;22.80;;;;;;5059474;28;20199;-82
2021/11/08 11:28:06;;;;;;;22.07;7.20;;;12.40;23.50;;;;;;5075591;28;20179;-83
2021/11/08 11:30:37;;;;;;;20.23;8.33;;;12.40;29.60;;;;;;5056890;28;20192;-83
2021/11/08 11:33:07;;;;;;;23.10;8.63;;;12.30;35.80;;;;;;5059719;28;20172;-84
2021/11/08 11:35:36;;;;;;;19.83;8.23;;;12.50;36.80;;;;;;5059605;28;20233;-84
2021/11/08 11:38:13;;;;;;;20.27;8.17;;;12.30;36.10;;;;;;5078177;28;20168;-83
2021/11/08 11:40:43;;;;;;;22.07;8.30;;;12.30;33.60;;;;;;5077339;28;20200;-83
2021/11/08 11:43:11;;;;;;;18.83;8.20;;;12.30;37.50;;;;;;5059336;28;20342;-81
2021/11/08 11:45:49;;;;;;;18.73;8.00;;;12.40;32.40;;;;;;5077536;28;20211;-83
2021/11/08 11:48:17;;;;;;;20.00;7.57;;;12.40;30.60;;;;;;5076817;28;20238;-82
2021/11/08 11:50:43;;;;;;;20.53;6.80;;;12.40;30.60;;;;;;5078558;28;20260;-83
2021/11/08 11:53:09;;;;;;;18.60;6.00;;;12.50;11.10;;;;;;5059965;28;20204;-81
2021/11/08 11:55:39;;;;;;;24.83;7.70;;;12.60;3.80;;;;;;5077863;28;20635;-82
2021/11/08 11:58:06;;;;;;;14.33;5.73;;;12.70;4.70;;;;;;5059082;28;20168;-82
2021/11/08 12:00:36;;;;;;;20.33;6.67;;;12.60;7.30;;;;;;5078003;28;20180;-81
2021/11/08 12:03:02;;;;;;;20.10;6.80;;;12.60;7.90;;;;;;5081765;28;20164;-82
2021/11/08 12:05:31;;;;;;;19.53;6.60;;;12.70;9.90;;;;;;5084614;28;20165;-82
2021/11/08 12:08:00;;;;;;;16.67;5.83;;;12.80;9.20;;;;;;5087623;28;20176;-80
2021/11/08 12:10:26;;;;;;;19.40;6.27;;;12.90;1.00;;;;;;5088441;28;20198;-81
2021/11/08 12:12:53;;;;;;;17.10;6.30;;;13.10;1.00;;;;;;5069917;28;20173;-82
2021/11/08 12:15:29;;;;;;;16.60;6.63;;;13.20;1.00;;;;;;5078037;28;20180;-81
2021/11/08 12:18:03;;;;;;;19.33;6.50;;;13.10;1.00;;;;;;5065372;28;20236;-82
2021/11/08 12:20:29;;;;;;;20.67;5.67;;;13.20;1.00;;;;;;5070948;28;20215;-80
2021/11/08 12:22:55;;;;;;;15.90;5.30;;;13.20;1.00;;;;;;5084658;28;20184;-80
2021/11/08 12:25:25;;;;;;;18.17;4.73;;;13.20;1.00;;;;;;5077664;28;20169;-81
2021/11/08 12:28:26;;;;;;;16.03;4.40;;;13.10;1.00;;;;;;5077398;28;20172;-82
2021/11/08 12:31:06;;;;;;;18.13;5.10;;;13.00;1.00;;;;;;5005700;28;20571;-81
2021/11/08 12:33:41;;;;;;;21.47;5.70;;;13.00;1.00;;;;;;5062468;28;20190;-80
2021/11/08 12:36:06;;;;;;;19.87;5.73;;;13.10;1.00;;;;;;5071192;28;20171;-83
2021/11/08 12:38:35;;;;;;;14.00;5.20;;;13.20;1.00;;;;;;5091733;28;20219;-83
2021/11/08 12:41:07;;;;;;;19.93;5.00;;;13.30;1.00;;;;;;5074602;28;20164;-84
2021/11/08 12:43:38;;;;;;;23.07;5.63;;;13.40;1.00;;;;;;5069306;28;20181;-83
2021/11/08 12:46:13;;;;;;;13.27;4.17;;;13.50;1.00;;;;;;5078893;28;20226;-83
2021/11/08 12:48:40;;;;;;;13.70;4.97;;;13.60;1.00;;;;;;5083521;28;20235;-85
2021/11/08 12:51:09;;;;;;;20.13;5.70;;;13.40;1.00;;;;;;5076333;28;20164;-82
2021/11/08 12:53:41;;;;;;;15.37;4.83;;;13.50;1.00;;;;;;5057767;28;20172;-82
2021/11/08 12:56:22;;;;;;;15.00;4.87;;;13.40;1.00;;;;;;5069125;28;20176;-84
2021/11/08 12:58:52;;;;;;;16.47;4.97;;;13.30;1.00;;;;;;5057250;28;20184;-83
2021/11/08 13:01:20;;;;;;;17.93;5.10;;;13.20;1.00;;;;;;5057307;28;20255;-83
2021/11/08 13:03:51;;;;;;;14.23;4.33;;;13.20;1.00;;;;;;5075815;28;20160;-83
2021/11/08 13:06:34;;;;;;;14.87;4.47;;;13.10;1.00;;;;;;5057215;28;20175;-80
2021/11/08 13:09:22;;;;;;;14.40;6.67;;;13.10;1.00;;;;;;5079120;28;20199;-82
2021/11/08 13:11:57;;;;;;;15.30;5.00;;;13.10;1.00;;;;;;5059176;28;20176;-83
2021/11/08 13:14:25;;;;;;;14.50;5.50;;;13.00;1.00;;;;;;5075620;28;20229;-82
2021/11/08 13:17:06;;;;;;;17.93;6.40;;;13.00;1.00;;;;;;5074957;28;20671;-84
2021/11/08 13:19:35;;;;;;;14.40;4.40;;;13.10;1.00;;;;;;5076184;28;20169;-84
2021/11/08 13:22:15;;;;;;;18.17;4.70;;;13.10;1.00;;;;;;5062376;28;20643;-82
2021/11/08 13:24:41;;;;;;;17.47;5.60;;;13.20;1.00;;;;;;5078474;28;20175;-83
2021/11/08 13:27:08;;;;;;;15.00;5.17;;;13.20;1.00;;;;;;5096901;28;20270;-83
2021/11/08 13:29:35;;;;;;;18.97;6.63;;;13.30;1.00;;;;;;5098014;28;20211;-84
2021/11/08 13:32:10;;;;;;;20.67;5.30;;;13.30;1.00;;;;;;5083763;28;20170;-84
2021/11/08 13:34:35;;;;;;;16.73;5.13;;;13.20;1.00;;;;;;5079566;28;20174;-82
2021/11/08 13:37:01;;;;;;;93.40;49.70;;;13.30;1.00;;;;;;5078994;28;20197;-82
2021/11/08 13:39:27;;;;;;;18.57;7.23;;;13.10;1.00;;;;;;5077474;28;20175;-81
2021/11/08 13:41:53;;;;;;;18.60;5.73;;;13.00;1.00;;;;;;5076045;28;20180;-83
2021/11/08 13:44:19;;;;;;;14.17;5.47;;;13.10;1.00;;;;;;5077330;28;20184;-83
2021/11/08 13:46:49;;;;;;;19.10;5.60;;;13.10;1.00;;;;;;5076579;28;20654;-83
2021/11/08 13:49:20;;;;;;;16.27;5.00;;;13.10;1.00;;;;;;5094361;28;20663;-84
2021/11/08 13:51:58;;;;;;;15.93;5.43;;;13.20;1.00;;;;;;5094971;28;20167;-82
2021/11/08 13:54:26;;;;;;;13.80;5.03;;;13.20;1.00;;;;;;5094878;28;20216;-83
2021/11/08 13:56:58;;;;;;;18.97;5.20;;;13.20;1.00;;;;;;5094971;28;20188;-84
2021/11/08 13:59:33;;;;;;;16.33;6.90;;;13.30;1.00;;;;;;5077206;28;20179;-84
2021/11/08 14:02:09;;;;;;;15.23;7.50;;;13.30;1.00;;;;;;5094421;28;20163;-83
2021/11/08 14:04:45;;;;;;;15.63;6.30;;;13.30;1.00;;;;;;5076849;28;20167;-83
2021/11/08 14:07:13;;;;;;;31.00;13.20;;;13.40;1.00;;;;;;5076236;28;20175;-83
2021/11/08 14:09:42;;;;;;;41.47;17.10;;;13.30;1.00;;;;;;5075742;28;20268;-84
2021/11/08 14:12:12;;;;;;;18.67;6.00;;;13.40;1.00;;;;;;5075164;28;20171;-80
2021/11/08 14:14:38;;;;;;;19.23;5.53;;;13.20;1.00;;;;;;5093873;28;20686;-80
2021/11/08 14:17:14;;;;;;;17.40;5.47;;;13.20;1.00;;;;;;5093585;28;20161;-80
2021/11/08 14:19:41;;;;;;;18.27;5.70;;;13.00;1.00;;;;;;5075042;28;20167;-80
2021/11/08 14:22:09;;;;;;;21.27;8.07;;;12.90;1.00;;;;;;5070914;28;20192;-83
2021/11/08 14:24:40;;;;;;;17.93;7.40;;;13.10;1.00;;;;;;5077506;28;20160;-83
2021/11/08 14:27:19;;;;;;;23.57;6.47;;;13.20;1.00;;;;;;5083129;28;20195;-82
2021/11/08 14:29:46;;;;;;;18.63;5.47;;;13.10;1.00;;;;;;5077065;28;20213;-84
2021/11/08 14:32:19;;;;;;;53.90;24.30;;;12.80;1.00;;;;;;5079098;28;20254;-83
2021/11/08 14:34:55;;;;;;;17.33;6.03;;;12.90;1.00;;;;;;5080218;28;20176;-83